sensor_id;sensor_type;location;lat;lon;timestamp;P1;durP1;ratioP1;P2;durP2;ratioP2
50781;SDS011;36749;37.428;-121.972;2023-07-20T00:02:21;12.00;;;6.18;;
50781;SDS011;36749;37.428;-121.972;2023-07-20T00:04:47;9.68;;;6.05;;
50781;SDS011;36749;37.428;-121.972;2023-07-20T00:07:13;16.02;;;6.45;;
50781;SDS011;36749;37.428;-121.972;2023-07-20T00:09:39;13.15;;;6.13;;
50781;SDS011;36749;37.428;-121.972;2023-07-20T00:12:05;13.52;;;6.10;;
50781;SDS011;36749;37.428;-121.972;2023-07-20T00:14:32;15.85;;;6.63;;
50781;SDS011;36749;37.428;-121.972;2023-07-20T00:16:58;14.73;;;5.72;;
50781;SDS011;36749;37.428;-121.972;2023-07-20T00:19:25;21.42;;;7.05;;
50781;SDS011;36749;37.428;-121.972;2023-07-20T00:21:52;26.25;;;7.05;;
50781;SDS011;36749;37.428;-121.972;2023-07-20T00:24:20;18.95;;;7.10;;
50781;SDS011;36749;37.428;-121.972;2023-07-20T00:26:46;21.73;;;7.05;;
50781;SDS011;36749;37.428;-121.972;2023-07-20T00:29:12;17.92;;;6.43;;
50781;SDS011;36749;37.428;-121.972;2023-07-20T00:31:38;27.25;;;7.65;;
50781;SDS011;36749;37.428;-121.972;2023-07-20T00:34:04;29.77;;;9.50;;
50781;SDS011;36749;37.428;-121.972;2023-07-20T00:36:31;19.45;;;7.10;;
50781;SDS011;36749;37.428;-121.972;2023-07-20T00:38:58;23.02;;;7.63;;
50781;SDS011;36749;37.428;-121.972;2023-07-20T00:41:24;13.45;;;5.45;;
50781;SDS011;36749;37.428;-121.972;2023-07-20T00:43:54;27.08;;;7.20;;
50781;SDS011;36749;37.428;-121.972;2023-07-20T00:46:22;20.23;;;6.35;;
50781;SDS011;36749;37.428;-121.972;2023-07-20T00:48:52;22.27;;;6.57;;
50781;SDS011;36749;37.428;-121.972;2023-07-20T00:51:19;16.40;;;6.50;;
50781;SDS011;36749;37.428;-121.972;2023-07-20T00:53:46;20.50;;;6.13;;
50781;SDS011;36749;37.428;-121.972;2023-07-20T00:56:13;17.63;;;6.57;;
50781;SDS011;36749;37.428;-121.972;2023-07-20T00:58:39;21.52;;;6.60;;
50781;SDS011;36749;37.428;-121.972;2023-07-20T01:01:05;16.70;;;6.20;;
50781;SDS011;36749;37.428;-121.972;2023-07-20T01:03:31;14.75;;;6.25;;
50781;SDS011;36749;37.428;-121.972;2023-07-20T01:06:04;18.52;;;7.00;;
50781;SDS011;36749;37.428;-121.972;2023-07-20T01:11:43;18.33;;;6.68;;
50781;SDS011;36749;37.428;-121.972;2023-07-20T01:14:12;19.45;;;6.70;;
50781;SDS011;36749;37.428;-121.972;2023-07-20T01:16:40;22.05;;;6.78;;
50781;SDS011;36749;37.428;-121.972;2023-07-20T01:19:07;17.27;;;6.40;;
50781;SDS011;36749;37.428;-121.972;2023-07-20T01:21:38;11.75;;;5.90;;
50781;SDS011;36749;37.428;-121.972;2023-07-20T01:33:02;16.13;;;6.68;;
50781;SDS011;36749;37.428;-121.972;2023-07-20T01:35:30;15.30;;;6.50;;
50781;SDS011;36749;37.428;-121.972;2023-07-20T01:37:56;13.85;;;6.50;;
50781;SDS011;36749;37.428;-121.972;2023-07-20T01:40:24;20.60;;;7.07;;
50781;SDS011;36749;37.428;-121.972;2023-07-20T01:42:52;35.80;;;9.70;;
50781;SDS011;36749;37.428;-121.972;2023-07-20T01:45:19;24.02;;;8.15;;
50781;SDS011;36749;37.428;-121.972;2023-07-20T01:47:45;19.48;;;7.20;;
50781;SDS011;36749;37.428;-121.972;2023-07-20T01:50:13;16.65;;;7.20;;
50781;SDS011;36749;37.428;-121.972;2023-07-20T01:52:40;17.92;;;7.00;;
50781;SDS011;36749;37.428;-121.972;2023-07-20T01:55:07;14.05;;;6.05;;
50781;SDS011;36749;37.428;-121.972;2023-07-20T01:57:33;19.55;;;6.90;;
50781;SDS011;36749;37.428;-121.972;2023-07-20T02:00:02;20.58;;;7.38;;
50781;SDS011;36749;37.428;-121.972;2023-07-20T02:02:32;21.02;;;7.63;;
50781;SDS011;36749;37.428;-121.972;2023-07-20T02:05:05;46.97;;;9.02;;
50781;SDS011;36749;37.428;-121.972;2023-07-20T02:07:32;13.25;;;6.85;;
50781;SDS011;36749;37.428;-121.972;2023-07-20T02:10:00;14.20;;;6.75;;
50781;SDS011;36749;37.428;-121.972;2023-07-20T02:12:29;18.00;;;7.63;;
50781;SDS011;36749;37.428;-121.972;2023-07-20T02:14:55;13.82;;;8.00;;
50781;SDS011;36749;37.428;-121.972;2023-07-20T02:17:21;14.98;;;7.40;;
50781;SDS011;36749;37.428;-121.972;2023-07-20T02:19:50;17.70;;;7.38;;
50781;SDS011;36749;37.428;-121.972;2023-07-20T02:22:17;18.35;;;6.97;;
50781;SDS011;36749;37.428;-121.972;2023-07-20T02:24:45;15.88;;;7.95;;
50781;SDS011;36749;37.428;-121.972;2023-07-20T02:27:11;15.45;;;7.60;;
50781;SDS011;36749;37.428;-121.972;2023-07-20T02:29:37;34.45;;;9.27;;
50781;SDS011;36749;37.428;-121.972;2023-07-20T02:32:09;16.95;;;7.95;;
50781;SDS011;36749;37.428;-121.972;2023-07-20T02:34:36;16.13;;;8.13;;
50781;SDS011;36749;37.428;-121.972;2023-07-20T02:37:02;14.25;;;7.35;;
50781;SDS011;36749;37.428;-121.972;2023-07-20T02:39:28;16.33;;;8.18;;
50781;SDS011;36749;37.428;-121.972;2023-07-20T02:41:54;18.38;;;8.65;;
50781;SDS011;36749;37.428;-121.972;2023-07-20T02:44:23;17.65;;;8.98;;
50781;SDS011;36749;37.428;-121.972;2023-07-20T02:46:50;16.42;;;8.90;;
50781;SDS011;36749;37.428;-121.972;2023-07-20T02:49:16;16.73;;;8.63;;
50781;SDS011;36749;37.428;-121.972;2023-07-20T02:51:44;19.23;;;9.50;;
50781;SDS011;36749;37.428;-121.972;2023-07-20T02:54:12;15.73;;;9.15;;
50781;SDS011;36749;37.428;-121.972;2023-07-20T02:56:44;22.30;;;9.32;;
50781;SDS011;36749;37.428;-121.972;2023-07-20T02:59:11;14.93;;;8.25;;
50781;SDS011;36749;37.428;-121.972;2023-07-20T03:01:37;18.38;;;9.27;;
50781;SDS011;36749;37.428;-121.972;2023-07-20T03:04:03;16.30;;;9.00;;
50781;SDS011;36749;37.428;-121.972;2023-07-20T03:06:30;16.30;;;10.13;;
50781;SDS011;36749;37.428;-121.972;2023-07-20T03:09:01;15.65;;;8.32;;
50781;SDS011;36749;37.428;-121.972;2023-07-20T03:11:30;15.63;;;9.50;;
50781;SDS011;36749;37.428;-121.972;2023-07-20T03:13:57;41.15;;;11.13;;
50781;SDS011;36749;37.428;-121.972;2023-07-20T03:16:24;123.70;;;18.45;;
50781;SDS011;36749;37.428;-121.972;2023-07-20T03:18:52;18.77;;;9.57;;
50781;SDS011;36749;37.428;-121.972;2023-07-20T03:21:20;16.92;;;9.52;;
50781;SDS011;36749;37.428;-121.972;2023-07-20T03:23:46;20.85;;;10.93;;
50781;SDS011;36749;37.428;-121.972;2023-07-20T03:26:15;21.35;;;9.93;;
50781;SDS011;36749;37.428;-121.972;2023-07-20T03:28:43;19.58;;;9.75;;
50781;SDS011;36749;37.428;-121.972;2023-07-20T03:31:09;16.83;;;9.27;;
50781;SDS011;36749;37.428;-121.972;2023-07-20T03:33:35;17.60;;;9.07;;
50781;SDS011;36749;37.428;-121.972;2023-07-20T03:36:03;16.23;;;8.45;;
50781;SDS011;36749;37.428;-121.972;2023-07-20T03:38:30;17.10;;;9.02;;
50781;SDS011;36749;37.428;-121.972;2023-07-20T03:40:57;21.20;;;8.30;;
50781;SDS011;36749;37.428;-121.972;2023-07-20T03:43:25;16.90;;;8.30;;
50781;SDS011;36749;37.428;-121.972;2023-07-20T03:45:51;16.30;;;8.80;;
50781;SDS011;36749;37.428;-121.972;2023-07-20T03:48:19;25.13;;;8.85;;
50781;SDS011;36749;37.428;-121.972;2023-07-20T03:50:48;21.35;;;10.85;;
50781;SDS011;36749;37.428;-121.972;2023-07-20T03:53:15;16.17;;;9.13;;
50781;SDS011;36749;37.428;-121.972;2023-07-20T03:55:45;16.42;;;8.32;;
50781;SDS011;36749;37.428;-121.972;2023-07-20T03:58:15;18.75;;;8.70;;
50781;SDS011;36749;37.428;-121.972;2023-07-20T04:00:45;15.98;;;8.98;;
50781;SDS011;36749;37.428;-121.972;2023-07-20T04:03:13;16.90;;;8.70;;
50781;SDS011;36749;37.428;-121.972;2023-07-20T04:05:39;18.73;;;8.82;;
50781;SDS011;36749;37.428;-121.972;2023-07-20T04:08:06;17.13;;;8.75;;
50781;SDS011;36749;37.428;-121.972;2023-07-20T04:10:32;17.95;;;8.48;;
50781;SDS011;36749;37.428;-121.972;2023-07-20T04:12:59;21.65;;;9.50;;
50781;SDS011;36749;37.428;-121.972;2023-07-20T04:15:26;21.15;;;9.23;;
50781;SDS011;36749;37.428;-121.972;2023-07-20T04:17:52;23.27;;;9.73;;
50781;SDS011;36749;37.428;-121.972;2023-07-20T04:20:18;25.40;;;9.52;;
50781;SDS011;36749;37.428;-121.972;2023-07-20T04:22:45;21.65;;;10.68;;
50781;SDS011;36749;37.428;-121.972;2023-07-20T04:25:11;31.55;;;11.38;;
50781;SDS011;36749;37.428;-121.972;2023-07-20T04:27:37;24.25;;;10.40;;
50781;SDS011;36749;37.428;-121.972;2023-07-20T04:30:03;23.55;;;10.70;;
50781;SDS011;36749;37.428;-121.972;2023-07-20T04:32:32;24.23;;;10.40;;
50781;SDS011;36749;37.428;-121.972;2023-07-20T04:34:59;26.80;;;10.80;;
50781;SDS011;36749;37.428;-121.972;2023-07-20T04:37:25;29.95;;;11.20;;
50781;SDS011;36749;37.428;-121.972;2023-07-20T04:39:51;28.02;;;10.77;;
50781;SDS011;36749;37.428;-121.972;2023-07-20T04:42:18;22.60;;;11.02;;
50781;SDS011;36749;37.428;-121.972;2023-07-20T04:44:45;20.55;;;10.77;;
50781;SDS011;36749;37.428;-121.972;2023-07-20T04:47:11;27.30;;;10.48;;
50781;SDS011;36749;37.428;-121.972;2023-07-20T04:49:37;26.38;;;11.25;;
50781;SDS011;36749;37.428;-121.972;2023-07-20T04:52:04;25.15;;;11.02;;
50781;SDS011;36749;37.428;-121.972;2023-07-20T04:54:30;29.40;;;11.63;;
50781;SDS011;36749;37.428;-121.972;2023-07-20T04:56:57;25.95;;;10.77;;
50781;SDS011;36749;37.428;-121.972;2023-07-20T04:59:23;32.92;;;11.38;;
50781;SDS011;36749;37.428;-121.972;2023-07-20T05:01:49;26.98;;;11.20;;
50781;SDS011;36749;37.428;-121.972;2023-07-20T05:04:15;26.95;;;10.73;;
50781;SDS011;36749;37.428;-121.972;2023-07-20T05:06:41;20.88;;;9.48;;
50781;SDS011;36749;37.428;-121.972;2023-07-20T05:09:07;24.98;;;11.38;;
50781;SDS011;36749;37.428;-121.972;2023-07-20T05:11:34;24.90;;;10.25;;
50781;SDS011;36749;37.428;-121.972;2023-07-20T05:14:00;24.55;;;10.48;;
50781;SDS011;36749;37.428;-121.972;2023-07-20T05:16:26;25.83;;;11.10;;
50781;SDS011;36749;37.428;-121.972;2023-07-20T05:18:52;23.00;;;11.02;;
50781;SDS011;36749;37.428;-121.972;2023-07-20T05:21:18;26.92;;;11.18;;
50781;SDS011;36749;37.428;-121.972;2023-07-20T05:23:44;28.17;;;10.82;;
50781;SDS011;36749;37.428;-121.972;2023-07-20T05:26:11;29.90;;;10.90;;
50781;SDS011;36749;37.428;-121.972;2023-07-20T05:28:37;28.05;;;10.50;;
50781;SDS011;36749;37.428;-121.972;2023-07-20T05:31:03;29.48;;;11.63;;
50781;SDS011;36749;37.428;-121.972;2023-07-20T05:33:29;27.55;;;11.85;;
50781;SDS011;36749;37.428;-121.972;2023-07-20T05:35:55;24.55;;;11.02;;
50781;SDS011;36749;37.428;-121.972;2023-07-20T05:38:21;23.00;;;9.55;;
50781;SDS011;36749;37.428;-121.972;2023-07-20T05:40:48;24.67;;;11.35;;
50781;SDS011;36749;37.428;-121.972;2023-07-20T05:43:14;27.27;;;10.38;;
50781;SDS011;36749;37.428;-121.972;2023-07-20T05:45:43;24.65;;;9.88;;
50781;SDS011;36749;37.428;-121.972;2023-07-20T05:48:10;29.40;;;10.35;;
50781;SDS011;36749;37.428;-121.972;2023-07-20T05:50:42;27.20;;;10.60;;
50781;SDS011;36749;37.428;-121.972;2023-07-20T05:53:09;25.75;;;10.38;;
50781;SDS011;36749;37.428;-121.972;2023-07-20T05:55:35;28.02;;;10.90;;
50781;SDS011;36749;37.428;-121.972;2023-07-20T05:58:01;25.77;;;10.68;;
50781;SDS011;36749;37.428;-121.972;2023-07-20T06:00:29;28.15;;;10.88;;
50781;SDS011;36749;37.428;-121.972;2023-07-20T06:02:55;21.63;;;10.15;;
50781;SDS011;36749;37.428;-121.972;2023-07-20T06:05:22;23.65;;;11.43;;
50781;SDS011;36749;37.428;-121.972;2023-07-20T06:07:49;26.58;;;11.70;;
50781;SDS011;36749;37.428;-121.972;2023-07-20T06:10:15;25.42;;;10.95;;
50781;SDS011;36749;37.428;-121.972;2023-07-20T06:12:42;26.55;;;12.75;;
50781;SDS011;36749;37.428;-121.972;2023-07-20T06:15:23;24.98;;;11.40;;
50781;SDS011;36749;37.428;-121.972;2023-07-20T06:17:51;28.30;;;11.82;;
50781;SDS011;36749;37.428;-121.972;2023-07-20T06:20:17;24.42;;;11.77;;
50781;SDS011;36749;37.428;-121.972;2023-07-20T06:22:44;26.17;;;12.18;;
50781;SDS011;36749;37.428;-121.972;2023-07-20T06:25:10;28.67;;;11.40;;
50781;SDS011;36749;37.428;-121.972;2023-07-20T06:27:37;24.88;;;10.43;;
50781;SDS011;36749;37.428;-121.972;2023-07-20T06:30:03;33.58;;;12.50;;
50781;SDS011;36749;37.428;-121.972;2023-07-20T06:32:30;28.55;;;12.85;;
50781;SDS011;36749;37.428;-121.972;2023-07-20T06:34:56;27.60;;;11.45;;
50781;SDS011;36749;37.428;-121.972;2023-07-20T06:37:22;25.35;;;12.18;;
50781;SDS011;36749;37.428;-121.972;2023-07-20T06:39:49;27.85;;;12.55;;
50781;SDS011;36749;37.428;-121.972;2023-07-20T06:42:15;28.27;;;12.55;;
50781;SDS011;36749;37.428;-121.972;2023-07-20T06:44:41;31.40;;;12.85;;
50781;SDS011;36749;37.428;-121.972;2023-07-20T06:47:07;28.30;;;11.48;;
50781;SDS011;36749;37.428;-121.972;2023-07-20T06:49:34;28.35;;;12.05;;
50781;SDS011;36749;37.428;-121.972;2023-07-20T06:52:00;30.77;;;12.73;;
50781;SDS011;36749;37.428;-121.972;2023-07-20T06:54:26;29.17;;;11.50;;
50781;SDS011;36749;37.428;-121.972;2023-07-20T06:56:52;36.63;;;13.93;;
50781;SDS011;36749;37.428;-121.972;2023-07-20T06:59:19;31.05;;;12.15;;
50781;SDS011;36749;37.428;-121.972;2023-07-20T07:01:46;26.20;;;12.02;;
50781;SDS011;36749;37.428;-121.972;2023-07-20T07:04:12;25.58;;;10.95;;
50781;SDS011;36749;37.428;-121.972;2023-07-20T07:06:39;35.35;;;12.60;;
50781;SDS011;36749;37.428;-121.972;2023-07-20T07:09:05;31.90;;;14.38;;
50781;SDS011;36749;37.428;-121.972;2023-07-20T07:11:31;29.17;;;12.55;;
50781;SDS011;36749;37.428;-121.972;2023-07-20T07:13:57;27.42;;;12.05;;
50781;SDS011;36749;37.428;-121.972;2023-07-20T07:16:23;26.00;;;12.32;;
50781;SDS011;36749;37.428;-121.972;2023-07-20T07:18:50;28.65;;;12.88;;
50781;SDS011;36749;37.428;-121.972;2023-07-20T07:21:16;30.35;;;12.98;;
50781;SDS011;36749;37.428;-121.972;2023-07-20T07:23:43;32.97;;;13.40;;
50781;SDS011;36749;37.428;-121.972;2023-07-20T07:26:11;29.08;;;12.60;;
50781;SDS011;36749;37.428;-121.972;2023-07-20T07:28:37;34.53;;;13.00;;
50781;SDS011;36749;37.428;-121.972;2023-07-20T07:31:06;28.80;;;13.60;;
50781;SDS011;36749;37.428;-121.972;2023-07-20T07:33:32;27.45;;;13.27;;
50781;SDS011;36749;37.428;-121.972;2023-07-20T07:36:00;25.85;;;12.60;;
50781;SDS011;36749;37.428;-121.972;2023-07-20T07:38:26;33.78;;;14.00;;
50781;SDS011;36749;37.428;-121.972;2023-07-20T07:40:52;29.70;;;13.35;;
50781;SDS011;36749;37.428;-121.972;2023-07-20T07:43:18;27.02;;;12.88;;
50781;SDS011;36749;37.428;-121.972;2023-07-20T07:45:44;30.92;;;13.98;;
50781;SDS011;36749;37.428;-121.972;2023-07-20T07:48:10;30.70;;;13.13;;
50781;SDS011;36749;37.428;-121.972;2023-07-20T07:50:37;33.15;;;15.00;;
50781;SDS011;36749;37.428;-121.972;2023-07-20T07:53:05;30.55;;;14.65;;
50781;SDS011;36749;37.428;-121.972;2023-07-20T07:55:32;30.50;;;13.43;;
50781;SDS011;36749;37.428;-121.972;2023-07-20T07:57:58;32.53;;;14.48;;
50781;SDS011;36749;37.428;-121.972;2023-07-20T08:00:25;27.55;;;13.57;;
50781;SDS011;36749;37.428;-121.972;2023-07-20T08:02:51;31.08;;;13.80;;
50781;SDS011;36749;37.428;-121.972;2023-07-20T08:05:18;28.98;;;14.02;;
50781;SDS011;36749;37.428;-121.972;2023-07-20T08:07:44;29.10;;;14.40;;
50781;SDS011;36749;37.428;-121.972;2023-07-20T08:10:10;29.02;;;13.73;;
50781;SDS011;36749;37.428;-121.972;2023-07-20T08:12:36;28.98;;;13.88;;
50781;SDS011;36749;37.428;-121.972;2023-07-20T08:15:03;29.17;;;13.48;;
50781;SDS011;36749;37.428;-121.972;2023-07-20T08:17:29;36.13;;;14.98;;
50781;SDS011;36749;37.428;-121.972;2023-07-20T08:19:55;29.52;;;13.85;;
50781;SDS011;36749;37.428;-121.972;2023-07-20T08:22:21;27.58;;;12.68;;
50781;SDS011;36749;37.428;-121.972;2023-07-20T08:24:48;27.92;;;12.98;;
50781;SDS011;36749;37.428;-121.972;2023-07-20T08:27:14;27.92;;;12.70;;
50781;SDS011;36749;37.428;-121.972;2023-07-20T08:29:40;30.40;;;13.88;;
50781;SDS011;36749;37.428;-121.972;2023-07-20T08:32:07;30.20;;;12.80;;
50781;SDS011;36749;37.428;-121.972;2023-07-20T08:34:33;33.38;;;12.93;;
50781;SDS011;36749;37.428;-121.972;2023-07-20T08:36:59;32.65;;;13.57;;
50781;SDS011;36749;37.428;-121.972;2023-07-20T08:39:25;35.08;;;13.90;;
50781;SDS011;36749;37.428;-121.972;2023-07-20T08:41:52;34.25;;;14.05;;
50781;SDS011;36749;37.428;-121.972;2023-07-20T08:44:18;29.20;;;13.07;;
50781;SDS011;36749;37.428;-121.972;2023-07-20T08:46:44;28.60;;;13.93;;
50781;SDS011;36749;37.428;-121.972;2023-07-20T08:49:11;26.33;;;13.25;;
50781;SDS011;36749;37.428;-121.972;2023-07-20T08:51:37;28.05;;;13.82;;
50781;SDS011;36749;37.428;-121.972;2023-07-20T08:54:04;37.10;;;13.65;;
50781;SDS011;36749;37.428;-121.972;2023-07-20T08:56:30;29.67;;;13.52;;
50781;SDS011;36749;37.428;-121.972;2023-07-20T08:58:57;31.00;;;13.70;;
50781;SDS011;36749;37.428;-121.972;2023-07-20T09:01:24;28.58;;;12.20;;
50781;SDS011;36749;37.428;-121.972;2023-07-20T09:03:52;29.77;;;13.63;;
50781;SDS011;36749;37.428;-121.972;2023-07-20T09:06:18;27.70;;;12.77;;
50781;SDS011;36749;37.428;-121.972;2023-07-20T09:08:44;29.65;;;14.20;;
50781;SDS011;36749;37.428;-121.972;2023-07-20T09:11:11;31.55;;;13.43;;
50781;SDS011;36749;37.428;-121.972;2023-07-20T09:13:39;28.05;;;12.23;;
50781;SDS011;36749;37.428;-121.972;2023-07-20T09:16:05;29.98;;;13.85;;
50781;SDS011;36749;37.428;-121.972;2023-07-20T09:18:31;26.83;;;13.50;;
50781;SDS011;36749;37.428;-121.972;2023-07-20T09:21:02;30.85;;;14.45;;
50781;SDS011;36749;37.428;-121.972;2023-07-20T09:23:36;31.77;;;14.40;;
50781;SDS011;36749;37.428;-121.972;2023-07-20T09:26:10;26.17;;;12.70;;
50781;SDS011;36749;37.428;-121.972;2023-07-20T09:28:58;27.08;;;13.60;;
50781;SDS011;36749;37.428;-121.972;2023-07-20T09:31:24;26.50;;;13.77;;
50781;SDS011;36749;37.428;-121.972;2023-07-20T09:33:52;26.23;;;14.00;;
50781;SDS011;36749;37.428;-121.972;2023-07-20T09:36:19;27.27;;;11.88;;
50781;SDS011;36749;37.428;-121.972;2023-07-20T09:38:45;28.60;;;13.88;;
50781;SDS011;36749;37.428;-121.972;2023-07-20T09:41:14;25.02;;;13.48;;
50781;SDS011;36749;37.428;-121.972;2023-07-20T09:43:41;27.23;;;12.63;;
50781;SDS011;36749;37.428;-121.972;2023-07-20T09:46:08;30.08;;;12.82;;
50781;SDS011;36749;37.428;-121.972;2023-07-20T09:48:34;25.73;;;13.20;;
50781;SDS011;36749;37.428;-121.972;2023-07-20T09:51:00;24.17;;;13.23;;
50781;SDS011;36749;37.428;-121.972;2023-07-20T09:53:27;29.50;;;13.30;;
50781;SDS011;36749;37.428;-121.972;2023-07-20T09:55:54;26.42;;;13.18;;
50781;SDS011;36749;37.428;-121.972;2023-07-20T09:58:21;30.70;;;14.05;;
50781;SDS011;36749;37.428;-121.972;2023-07-20T10:00:48;26.48;;;12.65;;
50781;SDS011;36749;37.428;-121.972;2023-07-20T10:03:20;32.58;;;14.10;;
50781;SDS011;36749;37.428;-121.972;2023-07-20T10:05:57;24.33;;;13.30;;
50781;SDS011;36749;37.428;-121.972;2023-07-20T10:08:26;32.50;;;14.02;;
50781;SDS011;36749;37.428;-121.972;2023-07-20T10:10:53;27.45;;;13.85;;
50781;SDS011;36749;37.428;-121.972;2023-07-20T10:13:25;24.98;;;13.15;;
50781;SDS011;36749;37.428;-121.972;2023-07-20T10:16:03;30.50;;;14.43;;
50781;SDS011;36749;37.428;-121.972;2023-07-20T10:18:54;26.58;;;13.57;;
50781;SDS011;36749;37.428;-121.972;2023-07-20T10:21:29;26.25;;;13.63;;
50781;SDS011;36749;37.428;-121.972;2023-07-20T10:23:56;26.83;;;13.77;;
50781;SDS011;36749;37.428;-121.972;2023-07-20T10:26:22;27.92;;;13.50;;
50781;SDS011;36749;37.428;-121.972;2023-07-20T10:28:49;31.33;;;14.18;;
50781;SDS011;36749;37.428;-121.972;2023-07-20T10:31:15;25.20;;;13.35;;
50781;SDS011;36749;37.428;-121.972;2023-07-20T10:33:42;28.15;;;12.23;;
50781;SDS011;36749;37.428;-121.972;2023-07-20T10:36:09;30.50;;;13.38;;
50781;SDS011;36749;37.428;-121.972;2023-07-20T10:41:19;24.42;;;13.07;;
50781;SDS011;36749;37.428;-121.972;2023-07-20T10:43:48;27.67;;;13.45;;
50781;SDS011;36749;37.428;-121.972;2023-07-20T10:46:14;28.70;;;13.43;;
50781;SDS011;36749;37.428;-121.972;2023-07-20T10:51:29;27.67;;;14.30;;
50781;SDS011;36749;37.428;-121.972;2023-07-20T10:53:56;28.55;;;14.02;;
50781;SDS011;36749;37.428;-121.972;2023-07-20T10:56:27;27.77;;;13.52;;
50781;SDS011;36749;37.428;-121.972;2023-07-20T10:59:00;29.42;;;13.20;;
50781;SDS011;36749;37.428;-121.972;2023-07-20T11:01:28;30.23;;;14.75;;
50781;SDS011;36749;37.428;-121.972;2023-07-20T11:03:59;28.77;;;14.95;;
50781;SDS011;36749;37.428;-121.972;2023-07-20T11:08:55;29.42;;;14.05;;
50781;SDS011;36749;37.428;-121.972;2023-07-20T11:11:36;30.55;;;15.43;;
50781;SDS011;36749;37.428;-121.972;2023-07-20T11:14:20;29.08;;;15.43;;
50781;SDS011;36749;37.428;-121.972;2023-07-20T11:16:48;27.23;;;14.70;;
50781;SDS011;36749;37.428;-121.972;2023-07-20T11:19:23;30.30;;;15.77;;
50781;SDS011;36749;37.428;-121.972;2023-07-20T11:21:51;27.95;;;16.30;;
50781;SDS011;36749;37.428;-121.972;2023-07-20T11:24:21;35.50;;;15.98;;
50781;SDS011;36749;37.428;-121.972;2023-07-20T11:26:48;31.95;;;16.65;;
50781;SDS011;36749;37.428;-121.972;2023-07-20T11:29:16;27.17;;;14.82;;
50781;SDS011;36749;37.428;-121.972;2023-07-20T11:31:44;58.05;;;17.33;;
50781;SDS011;36749;37.428;-121.972;2023-07-20T11:34:16;28.70;;;15.05;;
50781;SDS011;36749;37.428;-121.972;2023-07-20T11:36:45;29.27;;;14.93;;
50781;SDS011;36749;37.428;-121.972;2023-07-20T11:39:13;34.83;;;17.10;;
50781;SDS011;36749;37.428;-121.972;2023-07-20T11:41:47;34.20;;;15.35;;
50781;SDS011;36749;37.428;-121.972;2023-07-20T11:44:19;35.05;;;16.30;;
50781;SDS011;36749;37.428;-121.972;2023-07-20T11:46:59;35.10;;;15.40;;
50781;SDS011;36749;37.428;-121.972;2023-07-20T11:49:36;29.70;;;15.27;;
50781;SDS011;36749;37.428;-121.972;2023-07-20T11:52:11;31.92;;;15.85;;
50781;SDS011;36749;37.428;-121.972;2023-07-20T11:54:41;31.25;;;15.07;;
50781;SDS011;36749;37.428;-121.972;2023-07-20T11:57:17;29.05;;;15.60;;
50781;SDS011;36749;37.428;-121.972;2023-07-20T11:59:53;37.00;;;18.00;;
50781;SDS011;36749;37.428;-121.972;2023-07-20T12:02:23;35.15;;;16.35;;
50781;SDS011;36749;37.428;-121.972;2023-07-20T12:04:52;30.02;;;16.20;;
50781;SDS011;36749;37.428;-121.972;2023-07-20T12:07:20;35.55;;;17.73;;
50781;SDS011;36749;37.428;-121.972;2023-07-20T12:12:52;33.05;;;17.42;;
50781;SDS011;36749;37.428;-121.972;2023-07-20T12:15:22;32.53;;;15.63;;
50781;SDS011;36749;37.428;-121.972;2023-07-20T12:17:50;31.80;;;16.92;;
50781;SDS011;36749;37.428;-121.972;2023-07-20T12:20:30;32.72;;;15.68;;
50781;SDS011;36749;37.428;-121.972;2023-07-20T12:23:04;29.38;;;15.30;;
50781;SDS011;36749;37.428;-121.972;2023-07-20T12:25:36;32.83;;;15.05;;
50781;SDS011;36749;37.428;-121.972;2023-07-20T12:28:05;31.55;;;16.00;;
50781;SDS011;36749;37.428;-121.972;2023-07-20T12:30:32;31.50;;;15.43;;
50781;SDS011;36749;37.428;-121.972;2023-07-20T12:32:58;31.83;;;15.43;;
50781;SDS011;36749;37.428;-121.972;2023-07-20T12:35:24;35.42;;;16.33;;
50781;SDS011;36749;37.428;-121.972;2023-07-20T12:37:51;35.25;;;16.17;;
50781;SDS011;36749;37.428;-121.972;2023-07-20T12:40:18;32.28;;;15.63;;
50781;SDS011;36749;37.428;-121.972;2023-07-20T12:42:45;27.95;;;14.43;;
50781;SDS011;36749;37.428;-121.972;2023-07-20T12:45:11;35.00;;;15.27;;
50781;SDS011;36749;37.428;-121.972;2023-07-20T12:47:39;34.08;;;16.13;;
50781;SDS011;36749;37.428;-121.972;2023-07-20T12:50:06;33.58;;;14.82;;
50781;SDS011;36749;37.428;-121.972;2023-07-20T12:52:35;27.90;;;14.80;;
50781;SDS011;36749;37.428;-121.972;2023-07-20T12:55:04;32.33;;;14.73;;
50781;SDS011;36749;37.428;-121.972;2023-07-20T12:57:30;36.83;;;15.98;;
50781;SDS011;36749;37.428;-121.972;2023-07-20T12:59:57;35.40;;;15.77;;
50781;SDS011;36749;37.428;-121.972;2023-07-20T13:02:23;32.83;;;15.52;;
50781;SDS011;36749;37.428;-121.972;2023-07-20T13:04:49;35.85;;;15.63;;
50781;SDS011;36749;37.428;-121.972;2023-07-20T13:07:16;33.92;;;15.55;;
50781;SDS011;36749;37.428;-121.972;2023-07-20T13:09:42;37.33;;;16.30;;
50781;SDS011;36749;37.428;-121.972;2023-07-20T13:12:08;38.47;;;17.10;;
50781;SDS011;36749;37.428;-121.972;2023-07-20T13:14:34;33.85;;;16.80;;
50781;SDS011;36749;37.428;-121.972;2023-07-20T13:17:00;33.33;;;16.95;;
50781;SDS011;36749;37.428;-121.972;2023-07-20T13:19:27;33.10;;;16.67;;
50781;SDS011;36749;37.428;-121.972;2023-07-20T13:21:53;32.38;;;16.45;;
50781;SDS011;36749;37.428;-121.972;2023-07-20T13:24:19;33.42;;;17.92;;
50781;SDS011;36749;37.428;-121.972;2023-07-20T13:26:45;28.90;;;16.80;;
50781;SDS011;36749;37.428;-121.972;2023-07-20T13:29:11;31.90;;;16.83;;
50781;SDS011;36749;37.428;-121.972;2023-07-20T13:31:38;30.13;;;16.08;;
50781;SDS011;36749;37.428;-121.972;2023-07-20T13:34:04;35.20;;;17.27;;
50781;SDS011;36749;37.428;-121.972;2023-07-20T13:36:31;31.75;;;16.40;;
50781;SDS011;36749;37.428;-121.972;2023-07-20T13:38:58;27.90;;;14.90;;
50781;SDS011;36749;37.428;-121.972;2023-07-20T13:41:24;32.70;;;16.30;;
50781;SDS011;36749;37.428;-121.972;2023-07-20T13:43:50;31.13;;;15.98;;
50781;SDS011;36749;37.428;-121.972;2023-07-20T13:46:16;35.45;;;17.55;;
50781;SDS011;36749;37.428;-121.972;2023-07-20T13:48:43;34.10;;;17.52;;
50781;SDS011;36749;37.428;-121.972;2023-07-20T13:51:09;35.03;;;16.73;;
50781;SDS011;36749;37.428;-121.972;2023-07-20T13:53:35;31.02;;;15.70;;
50781;SDS011;36749;37.428;-121.972;2023-07-20T13:56:01;33.05;;;18.08;;
50781;SDS011;36749;37.428;-121.972;2023-07-20T13:58:29;33.17;;;15.88;;
50781;SDS011;36749;37.428;-121.972;2023-07-20T14:00:56;35.03;;;17.25;;
50781;SDS011;36749;37.428;-121.972;2023-07-20T14:03:22;35.72;;;18.83;;
50781;SDS011;36749;37.428;-121.972;2023-07-20T14:05:48;29.80;;;16.67;;
50781;SDS011;36749;37.428;-121.972;2023-07-20T14:08:15;25.60;;;15.98;;
50781;SDS011;36749;37.428;-121.972;2023-07-20T14:10:42;31.75;;;17.70;;
50781;SDS011;36749;37.428;-121.972;2023-07-20T14:13:08;33.08;;;18.35;;
50781;SDS011;36749;37.428;-121.972;2023-07-20T14:15:35;31.73;;;17.90;;